Wainwright, AK

2:03 PM AKST on February 28, 2015 (GMT -0900)
Wainwright | Change Station
CLOSE
Current Station
Airport
Location: Wainwright,
Elevation: 39 ft
Nearby Weather Stations
Active Advisory: Winter Weather Advisory Active Notice: Record Report

Elev 39 ft 70.64 °N, 159.99 °W | Updated 10 minutes ago

Heavy Snow
Heavy Snow
0 °F
Feels Like -24 °F
N
25
Wind Variable Wind from WNW
Gusts 38 mph

Today
High -- | Low -- °F
--% Chance of Precip.
Yesterday
High -- | Low -- °F
Precip. -- in
9:14 AM 6:32 PM
Waxing Gibbous, 80% visible
Pressure 29.72 in
Visibility 0.2 miles
Clouds Mostly Cloudy 1400 ft
Overcast 3600 ft
Windchill -24 °F
Dew Point -5 °F
Humidity 79%
Rainfall 0.00 in
Snow Depth Not available.
UV 0 out of 12
Pollen Not available.
Air Quality Not available.
Flu Activity Not available.
METAR PAWI 282253Z AUTO 29022G33KT 1/4SM +SN BKN014 OVC036 M18/M21 A2971 RMK PK WND 31034/2240 SLP063 P0000 T11781206 TSNO VIA AUTODIAL

More Conditions Fewer Conditions

Pressure 29.72 in
Visibility 0.2 miles
Clouds Mostly Cloudy 1400 ft
Overcast 3600 ft
Windchill -24 °F
Dew Point -5 °F
Humidity 79%
Rainfall 0.00 in
Snow Depth Not available.
UV 0 out of 12
Pollen Not available.
Air Quality Not available.
Flu Activity Not available.
METAR PAWI 282253Z AUTO 29022G33KT 1/4SM +SN BKN014 OVC036 M18/M21 A2971 RMK PK WND 31034/2240 SLP063 P0000 T11781206 TSNO VIA AUTODIAL

More Conditions Fewer Conditions

10-Day Weather Forecast

Almanac

Astronomy

Feb. 28, 2015 Rise Set
Actual Time
Civil Twilight
Nautical Twilight
Astronomical Twilight
Moon
Length of Visible Light
Length of Day
Tomorrow will be .
, % of the Moon is Illuminated

Today's Extremes

State Highs State Lows

Community

WunderPhotos

Upload Photos

1,801,160 photos uploaded!

WunderBlogs® & News

Nearby

Air Quality

  Air Quality AQ Index Pollutant
Not available.

Snow Depth

Station Depth Elevation

Earthquake Activity

City Distance Mag. Time & Date
Minimum magnitude displayed is 2.5.

Coastal Water Temperatures

Place Temperature

Nearby Weather Stations

Winter Weather Advisory
Statement as of 4:22 AM AKST on February 28, 2015

... Winter Weather Advisory now in effect from 6 am this morning
to 3 am akst Sunday...

The Winter Weather Advisory for blowing snow and winds is now in
effect from 6 am this morning to 3 am akst Sunday.

* Blowing snow and snow... reducing visibility to one half mile
or less at times.

* Winds... becoming northwest and increasing to 20 to 35 mph
gusting to 50 mph.

* Timing... winds will increase and conditions will deteriorate
this morning. Conditions will improve tonight as winds diminish.

* Impacts... visibility will be greatly reduced and snow will
accumulate into drifts. Whiteout conditions may occur. Travel
and outdoor activities will be difficult.

Precautionary/preparedness actions...

A Winter Weather Advisory means that one or more winter weather
hazards are expected to cause travel difficulties.